KOLY/OLY METAR and TAF weather

Enter ICAO airport designator
Station Type Date Time Source
KOLY METAR 2019/12/08 16:55 UTC NOAA

KOLY 081655Z AUTO 17012KT 10SM CLR 09/06 A3006 RMK AO2 T00940060


Station Type Date Time Source
KOLY Decoded METAR 2019/12/08 16:55 UTC NOAA

Olney-Noble, Olney-Noble Airport, IL, United States (KOLY) 38-43-19N 088-10-35W
Dec 08, 2019 - 11:55 AM EST / 2019.12.08 1655 UTC
Wind: from the S (170 degrees) at 14 MPH (12 KT):0
Visibility: 10 mile(s):0
Sky conditions: clear
Temperature: 48.9 F (9.4 C)
Dew Point: 42.8 F (6.0 C)
Relative Humidity: 79%
Pressure (altimeter): 30.06 in. Hg (1017 hPa)
ob: KOLY 081655Z AUTO 17012KT 10SM CLR 09/06 A3006 RMK AO2 T00940060
cycle: 17

Station Type Date Time Source
KOLY TAF UTC NOAA

Error!

Example: see airport list